createdAt,value
2022-10-26T00:00:16.782Z,16.26
2022-10-26T00:01:17.012Z,16.25
2022-10-26T00:02:17.331Z,16.21
2022-10-26T00:03:17.297Z,16.23
2022-10-26T00:04:17.489Z,16.23
2022-10-26T00:05:17.678Z,16.26
2022-10-26T00:06:17.851Z,16.21
2022-10-26T00:07:18.031Z,16.25
2022-10-26T00:08:18.217Z,16.19
2022-10-26T00:09:18.418Z,16.19
2022-10-26T00:10:18.570Z,16.17
2022-10-26T00:11:18.749Z,16.19
2022-10-26T00:12:18.927Z,16.16
2022-10-26T00:13:19.127Z,16.14
2022-10-26T00:14:19.314Z,16.14
2022-10-26T00:15:19.456Z,16.11
2022-10-26T00:16:19.642Z,16.13
2022-10-26T00:17:19.822Z,16.09
2022-10-26T00:18:20.004Z,16.11
2022-10-26T00:19:20.214Z,16.10
2022-10-26T00:20:20.352Z,16.11
2022-10-26T00:21:20.535Z,16.09
2022-10-26T00:22:20.719Z,16.09
2022-10-26T00:23:20.895Z,16.07
2022-10-26T00:24:21.100Z,16.07
2022-10-26T00:25:21.236Z,16.05
2022-10-26T00:26:21.423Z,16.04
2022-10-26T00:27:21.598Z,16.01
2022-10-26T00:28:21.780Z,16.02
2022-10-26T00:29:21.976Z,16.01
2022-10-26T00:30:22.164Z,16.02
2022-10-26T00:31:22.336Z,16.01
2022-10-26T00:32:22.522Z,16.02
2022-10-26T00:33:22.709Z,15.98
2022-10-26T00:34:22.910Z,16.02
2022-10-26T00:35:34.727Z,15.96
2022-10-26T00:36:24.241Z,15.95
2022-10-26T00:37:23.409Z,15.96
2022-10-26T00:38:23.592Z,15.89
2022-10-26T00:39:23.809Z,15.95
2022-10-26T00:40:23.949Z,15.94
2022-10-26T00:41:24.130Z,15.91
2022-10-26T00:42:24.325Z,15.89
2022-10-26T00:43:24.501Z,15.94
2022-10-26T00:44:24.705Z,15.86
2022-10-26T00:45:24.845Z,15.86
2022-10-26T00:46:25.035Z,15.87
2022-10-26T00:47:25.215Z,15.83
2022-10-26T00:48:25.412Z,15.89
2022-10-26T00:49:25.608Z,15.87
2022-10-26T00:50:25.788Z,15.84
2022-10-26T00:51:25.928Z,15.86
2022-10-26T00:52:26.120Z,15.84
2022-10-26T00:53:26.304Z,15.83
2022-10-26T00:54:26.496Z,15.83
2022-10-26T00:55:26.679Z,15.80
2022-10-26T00:56:26.854Z,15.83
2022-10-26T00:57:27.098Z,15.80
2022-10-26T00:58:27.194Z,15.80
2022-10-26T00:59:27.381Z,15.76
2022-10-26T01:00:27.576Z,15.74
2022-10-26T01:01:27.820Z,15.79
2022-10-26T01:02:27.942Z,15.74
2022-10-26T01:03:28.159Z,15.77
2022-10-26T01:04:28.311Z,15.76
2022-10-26T01:05:28.506Z,15.74
2022-10-26T01:06:28.677Z,15.73
2022-10-26T01:07:28.865Z,15.71
2022-10-26T01:08:29.056Z,15.76
2022-10-26T01:09:29.222Z,15.71
2022-10-26T01:10:29.423Z,15.70
2022-10-26T01:11:29.592Z,15.68
2022-10-26T01:12:29.804Z,15.70
2022-10-26T01:13:29.963Z,15.71
2022-10-26T01:14:30.152Z,15.65
2022-10-26T01:15:30.329Z,15.68
2022-10-26T01:16:30.510Z,15.66
2022-10-26T01:17:30.691Z,15.68
2022-10-26T01:18:30.891Z,15.63
2022-10-26T01:19:31.024Z,15.60
2022-10-26T01:20:31.208Z,15.58
2022-10-26T01:21:31.386Z,15.62
2022-10-26T01:22:31.590Z,15.57
2022-10-26T01:23:31.722Z,15.55
2022-10-26T01:24:31.923Z,15.55
2022-10-26T01:25:32.091Z,15.57
2022-10-26T01:26:32.277Z,15.54
2022-10-26T01:27:32.497Z,15.60
2022-10-26T01:28:32.636Z,15.54
2022-10-26T01:29:32.783Z,15.55
2022-10-26T01:30:32.980Z,15.53
2022-10-26T01:31:33.159Z,15.51
2022-10-26T01:32:33.364Z,15.54
2022-10-26T01:33:33.494Z,15.51
2022-10-26T01:34:33.686Z,15.53
2022-10-26T01:35:33.874Z,15.53
2022-10-26T01:36:34.098Z,15.47
2022-10-26T01:37:34.206Z,15.46
2022-10-26T01:38:34.404Z,15.47
2022-10-26T01:39:34.566Z,15.45
2022-10-26T01:40:34.771Z,15.40
2022-10-26T01:41:34.947Z,15.43
2022-10-26T01:42:35.144Z,15.42
2022-10-26T01:43:35.318Z,15.42
2022-10-26T01:44:35.539Z,15.43
2022-10-26T01:45:35.679Z,15.39
2022-10-26T01:46:35.861Z,15.40
2022-10-26T01:47:36.038Z,15.40
2022-10-26T01:48:36.221Z,15.39
2022-10-26T01:49:36.419Z,15.36
2022-10-26T01:50:36.613Z,15.33
2022-10-26T01:51:36.749Z,15.35
2022-10-26T01:52:36.939Z,15.39
2022-10-26T01:53:37.120Z,15.33
2022-10-26T01:55:37.491Z,15.33
2022-10-26T01:56:37.692Z,15.32
2022-10-26T01:57:37.864Z,15.32
2022-10-26T01:58:38.052Z,15.28
2022-10-26T01:59:38.244Z,15.27
2022-10-26T02:00:38.427Z,15.27
2022-10-26T02:01:38.659Z,15.27
2022-10-26T02:02:38.783Z,15.25
2022-10-26T02:03:38.981Z,15.24
2022-10-26T02:04:39.165Z,15.24
2022-10-26T02:05:39.316Z,15.24
2022-10-26T02:06:39.491Z,15.22
2022-10-26T02:07:39.673Z,15.22
2022-10-26T02:08:39.862Z,15.22
2022-10-26T02:09:40.045Z,15.21
2022-10-26T02:10:40.226Z,15.21
2022-10-26T02:11:40.407Z,15.21
2022-10-26T02:12:40.590Z,15.21
2022-10-26T02:13:40.789Z,15.17
2022-10-26T02:14:40.978Z,15.15
2022-10-26T02:15:41.119Z,15.15
2022-10-26T02:16:41.309Z,15.14
2022-10-26T02:17:41.487Z,15.14
2022-10-26T02:18:41.668Z,15.15
2022-10-26T02:19:41.872Z,15.09
2022-10-26T02:20:42.041Z,15.12
2022-10-26T02:21:42.219Z,15.12
2022-10-26T02:22:42.399Z,15.05
2022-10-26T02:23:42.581Z,15.07
2022-10-26T02:24:42.803Z,15.02
2022-10-26T02:25:42.945Z,15.06
2022-10-26T02:26:43.120Z,15.09
2022-10-26T02:27:43.305Z,15.06
2022-10-26T02:28:43.499Z,15.06
2022-10-26T02:29:43.693Z,15.03
2022-10-26T02:30:43.830Z,15.05
2022-10-26T02:31:44.012Z,14.98
2022-10-26T02:32:44.186Z,15.02
2022-10-26T02:33:44.416Z,14.98
2022-10-26T02:34:44.554Z,15.00
2022-10-26T02:35:44.732Z,15.02
2022-10-26T02:36:44.905Z,15.02
2022-10-26T02:37:45.094Z,14.99
2022-10-26T02:38:45.265Z,14.98
2022-10-26T02:39:45.454Z,14.96
2022-10-26T02:40:45.633Z,14.96
2022-10-26T02:41:45.815Z,14.98
2022-10-26T02:42:46.008Z,14.96
2022-10-26T02:43:46.196Z,14.92
2022-10-26T02:44:46.369Z,14.95
2022-10-26T02:45:46.554Z,14.92
2022-10-26T02:46:46.738Z,14.90
2022-10-26T02:47:47.260Z,14.95
2022-10-26T02:48:47.087Z,14.92
2022-10-26T02:49:47.270Z,14.95
2022-10-26T02:50:47.447Z,14.88
2022-10-26T02:52:48.088Z,14.90
2022-10-26T02:53:47.992Z,14.87
2022-10-26T02:54:48.180Z,14.85
2022-10-26T02:55:48.397Z,14.90
2022-10-26T02:56:48.553Z,14.90
2022-10-26T02:57:48.693Z,14.84
2022-10-26T02:58:48.870Z,14.84
2022-10-26T02:59:49.059Z,14.85
2022-10-26T03:00:49.250Z,14.85
2022-10-26T03:01:49.445Z,14.85
2022-10-26T03:02:49.847Z,14.85
2022-10-26T03:03:49.849Z,14.78
2022-10-26T03:04:49.954Z,14.81
2022-10-26T03:05:50.131Z,14.82
2022-10-26T03:06:50.315Z,14.81
2022-10-26T03:07:50.502Z,14.82
2022-10-26T03:08:50.686Z,14.81
2022-10-26T03:09:50.866Z,14.80
2022-10-26T03:10:51.064Z,14.81
2022-10-26T03:11:51.239Z,14.80
2022-10-26T03:12:51.756Z,14.80
2022-10-26T03:13:51.603Z,14.78
2022-10-26T03:14:51.815Z,14.78
2022-10-26T03:15:51.944Z,14.77
2022-10-26T03:17:52.566Z,14.77
2022-10-26T03:18:52.501Z,14.78
2022-10-26T03:19:52.699Z,14.72
2022-10-26T03:20:52.870Z,14.72
2022-10-26T03:21:53.061Z,14.72
2022-10-26T03:22:53.248Z,14.70
2022-10-26T03:23:53.430Z,14.70
2022-10-26T03:24:53.615Z,14.69
2022-10-26T03:25:53.793Z,14.67
2022-10-26T03:26:56.096Z,14.70
2022-10-26T03:27:54.157Z,14.67
2022-10-26T03:28:54.340Z,14.66
2022-10-26T03:29:54.539Z,14.65
2022-10-26T03:30:54.717Z,14.66
2022-10-26T03:31:54.910Z,14.66
2022-10-26T03:32:55.089Z,14.63
2022-10-26T03:33:55.262Z,14.65
2022-10-26T03:34:55.459Z,14.62
2022-10-26T03:35:55.630Z,14.62
2022-10-26T03:36:55.817Z,14.60
2022-10-26T03:37:56.000Z,14.57
2022-10-26T03:38:56.209Z,14.63
2022-10-26T03:39:56.354Z,14.60
2022-10-26T03:40:56.530Z,14.59
2022-10-26T03:41:56.731Z,14.57
2022-10-26T03:42:56.899Z,14.59
2022-10-26T03:43:57.082Z,14.57
2022-10-26T03:44:57.293Z,14.59
2022-10-26T03:45:57.438Z,14.54
2022-10-26T03:46:57.604Z,14.57
2022-10-26T03:47:57.792Z,14.54
2022-10-26T03:48:57.973Z,14.55
2022-10-26T03:49:58.215Z,14.52
2022-10-26T03:50:58.338Z,14.51
2022-10-26T03:51:58.523Z,14.50
2022-10-26T03:52:58.704Z,14.50
2022-10-26T03:53:58.889Z,14.50
2022-10-26T03:54:59.090Z,14.51
2022-10-26T03:55:59.275Z,14.48
2022-10-26T03:56:59.437Z,14.47
2022-10-26T03:57:59.627Z,14.50
2022-10-26T03:58:59.824Z,14.42
2022-10-26T04:00:00.026Z,14.48
2022-10-26T04:01:00.186Z,14.47
2022-10-26T04:02:00.422Z,14.44
2022-10-26T04:03:00.536Z,14.41
2022-10-26T04:04:00.802Z,14.42
2022-10-26T04:05:00.916Z,14.44
2022-10-26T04:06:01.119Z,14.42
2022-10-26T04:07:01.253Z,14.40
2022-10-26T04:08:01.444Z,14.40
2022-10-26T04:09:01.613Z,14.42
2022-10-26T04:10:01.829Z,14.40
2022-10-26T04:11:03.892Z,14.37
2022-10-26T04:12:02.136Z,14.40
2022-10-26T04:13:02.325Z,14.36
2022-10-26T04:14:02.501Z,14.36
2022-10-26T04:16:02.895Z,14.36
2022-10-26T04:17:03.008Z,14.36
2022-10-26T04:18:03.198Z,14.34
2022-10-26T04:19:03.379Z,14.32
2022-10-26T04:20:03.567Z,14.34
2022-10-26T04:21:03.740Z,14.33
2022-10-26T04:22:03.932Z,14.34
2022-10-26T04:23:04.106Z,14.34
2022-10-26T04:24:04.292Z,14.32
2022-10-26T04:25:04.485Z,14.32
2022-10-26T04:26:04.634Z,14.29
2022-10-26T04:27:04.805Z,14.30
2022-10-26T04:28:04.995Z,14.29
2022-10-26T04:29:05.174Z,14.29
2022-10-26T04:30:05.364Z,14.27
2022-10-26T04:31:05.535Z,14.29
2022-10-26T04:32:05.728Z,14.29
2022-10-26T04:33:05.886Z,14.27
2022-10-26T04:34:06.114Z,14.25
2022-10-26T04:35:06.247Z,14.29
2022-10-26T04:36:06.448Z,14.27
2022-10-26T04:37:06.612Z,14.27
2022-10-26T04:38:06.810Z,14.23
2022-10-26T04:39:06.989Z,14.26
2022-10-26T04:41:07.351Z,14.23
2022-10-26T04:42:07.542Z,14.23
2022-10-26T04:43:07.708Z,14.25
2022-10-26T04:44:07.919Z,14.22
2022-10-26T04:45:08.068Z,14.18
2022-10-26T04:46:08.249Z,14.22
2022-10-26T04:47:08.432Z,14.18
2022-10-26T04:48:08.631Z,14.23
2022-10-26T04:49:08.814Z,14.22
2022-10-26T04:50:09.000Z,14.25
2022-10-26T04:51:09.171Z,14.17
2022-10-26T04:52:09.362Z,14.17
2022-10-26T04:53:09.537Z,14.17
2022-10-26T04:54:09.742Z,14.14
2022-10-26T04:55:09.883Z,14.17
2022-10-26T04:56:10.062Z,14.13
2022-10-26T04:57:10.241Z,14.16
2022-10-26T04:58:10.430Z,14.13
2022-10-26T04:59:10.645Z,14.14
2022-10-26T05:00:10.784Z,14.14
2022-10-26T05:01:11.085Z,14.13
2022-10-26T05:02:11.278Z,14.11
2022-10-26T05:03:11.338Z,14.11
2022-10-26T05:04:11.544Z,14.11
2022-10-26T05:05:14.232Z,14.11
2022-10-26T05:06:11.887Z,14.11
2022-10-26T05:07:12.045Z,14.11
2022-10-26T05:08:12.235Z,14.10
2022-10-26T05:09:12.429Z,14.10
2022-10-26T05:10:12.570Z,14.08
2022-10-26T05:11:12.761Z,14.08
2022-10-26T05:12:12.943Z,14.07
2022-10-26T05:13:13.119Z,14.10
2022-10-26T05:14:13.328Z,14.03
2022-10-26T05:15:13.506Z,14.06
2022-10-26T05:16:13.688Z,14.03
2022-10-26T05:17:13.850Z,14.08
2022-10-26T05:18:14.037Z,14.06
2022-10-26T05:19:14.228Z,14.04
2022-10-26T05:20:14.438Z,14.04
2022-10-26T05:21:14.588Z,14.06
2022-10-26T05:22:14.775Z,14.01
2022-10-26T05:23:14.963Z,14.03
2022-10-26T05:24:15.140Z,14.04
2022-10-26T05:25:15.341Z,14.03
2022-10-26T05:26:15.485Z,14.03
2022-10-26T05:27:15.662Z,14.03
2022-10-26T05:28:15.863Z,14.01
2022-10-26T05:29:16.042Z,14.03
2022-10-26T05:30:16.237Z,14.03
2022-10-26T05:31:16.374Z,13.99
2022-10-26T05:32:16.554Z,14.01
2022-10-26T05:33:16.738Z,14.01
2022-10-26T05:34:16.958Z,13.96
2022-10-26T05:35:17.109Z,13.99
2022-10-26T05:36:17.283Z,13.98
2022-10-26T05:37:17.463Z,13.95
2022-10-26T05:38:17.785Z,13.96
2022-10-26T05:39:17.836Z,13.96
2022-10-26T05:40:18.025Z,13.95
2022-10-26T05:41:18.194Z,13.93
2022-10-26T05:42:18.404Z,13.93
2022-10-26T05:43:18.541Z,13.93
2022-10-26T05:44:18.725Z,13.92
2022-10-26T05:45:18.943Z,13.95
2022-10-26T05:46:19.076Z,13.92
2022-10-26T05:47:19.275Z,13.92
2022-10-26T05:48:19.457Z,13.88
2022-10-26T05:49:19.628Z,13.86
2022-10-26T05:50:19.807Z,13.89
2022-10-26T05:51:20.016Z,13.89
2022-10-26T05:52:20.156Z,13.88
2022-10-26T05:53:20.369Z,13.89
2022-10-26T05:54:20.516Z,13.89
2022-10-26T05:55:20.704Z,13.86
2022-10-26T05:56:20.890Z,13.86
2022-10-26T05:57:21.064Z,13.88
2022-10-26T05:58:21.245Z,13.85
2022-10-26T05:59:21.427Z,13.88
2022-10-26T06:00:21.585Z,13.88
2022-10-26T06:01:21.800Z,13.85
2022-10-26T06:02:22.027Z,13.85
2022-10-26T06:03:22.114Z,13.78
2022-10-26T06:04:22.266Z,13.85
2022-10-26T06:05:22.534Z,13.86
2022-10-26T06:06:22.643Z,13.81
2022-10-26T06:07:22.807Z,13.84
2022-10-26T06:08:22.971Z,13.81
2022-10-26T06:09:23.144Z,13.85
2022-10-26T06:10:23.317Z,13.86
2022-10-26T06:11:23.472Z,13.84
2022-10-26T06:12:23.634Z,13.86
2022-10-26T06:13:23.817Z,13.84
2022-10-26T06:14:24.019Z,13.85
2022-10-26T06:15:24.193Z,13.78
2022-10-26T06:16:24.349Z,13.85
2022-10-26T06:17:24.535Z,13.84
2022-10-26T06:18:24.700Z,13.81
2022-10-26T06:19:24.857Z,13.80
2022-10-26T06:20:25.038Z,13.85
2022-10-26T06:21:25.191Z,13.81
2022-10-26T06:22:25.355Z,13.86
2022-10-26T06:23:25.505Z,13.85
2022-10-26T06:24:25.740Z,13.86
2022-10-26T06:25:25.899Z,13.85
2022-10-26T06:26:26.044Z,13.84
2022-10-26T06:27:26.203Z,13.80
2022-10-26T06:28:26.403Z,13.81
2022-10-26T06:29:26.529Z,13.80
2022-10-26T06:30:26.753Z,13.81
2022-10-26T06:31:26.881Z,13.84
2022-10-26T06:32:27.278Z,13.81
2022-10-26T06:33:29.852Z,13.85
2022-10-26T06:34:27.392Z,13.84
2022-10-26T06:35:27.572Z,13.86
2022-10-26T06:36:27.722Z,13.84
2022-10-26T06:37:27.929Z,13.84
2022-10-26T06:38:28.089Z,13.81
2022-10-26T06:39:28.258Z,13.86
2022-10-26T06:40:28.406Z,13.84
2022-10-26T06:41:28.581Z,13.84
2022-10-26T06:42:28.746Z,13.81
2022-10-26T06:43:28.911Z,13.84
2022-10-26T06:44:29.079Z,13.84
2022-10-26T06:45:29.244Z,13.81
2022-10-26T06:46:29.398Z,13.84
2022-10-26T06:47:29.597Z,13.84
2022-10-26T06:48:29.753Z,13.81
2022-10-26T06:49:29.934Z,13.85
2022-10-26T06:50:30.115Z,13.81
2022-10-26T06:51:30.275Z,13.81
2022-10-26T06:52:30.434Z,13.81
2022-10-26T06:53:30.662Z,13.81
2022-10-26T06:54:30.796Z,13.78
2022-10-26T06:55:30.953Z,13.85
2022-10-26T06:56:31.114Z,13.80
2022-10-26T06:57:31.284Z,13.84
2022-10-26T06:58:31.445Z,13.85
2022-10-26T06:59:31.627Z,13.85
2022-10-26T07:01:32.085Z,13.84
2022-10-26T07:02:32.246Z,13.86
2022-10-26T07:03:32.336Z,13.86
2022-10-26T07:04:32.538Z,13.81
2022-10-26T07:05:32.696Z,13.86
2022-10-26T07:06:35.494Z,13.88
2022-10-26T07:07:34.046Z,13.86
2022-10-26T07:08:33.208Z,13.86
2022-10-26T07:09:33.395Z,13.88
2022-10-26T07:10:33.575Z,13.86
2022-10-26T07:11:33.750Z,13.91
2022-10-26T07:12:33.929Z,13.89
2022-10-26T07:13:34.104Z,13.91
2022-10-26T07:14:34.361Z,13.89
2022-10-26T07:15:34.460Z,13.92
2022-10-26T07:16:34.660Z,13.92
2022-10-26T07:17:35.821Z,13.93
2022-10-26T07:18:35.016Z,13.96
2022-10-26T07:19:35.221Z,13.96
2022-10-26T07:20:35.348Z,13.98
2022-10-26T07:21:35.511Z,13.99
2022-10-26T07:22:35.676Z,14.03
2022-10-26T07:23:35.854Z,14.04
2022-10-26T07:24:36.056Z,14.06
2022-10-26T07:25:36.174Z,14.08
2022-10-26T07:26:36.382Z,14.11
2022-10-26T07:27:36.579Z,14.14
2022-10-26T07:28:38.674Z,14.18
2022-10-26T07:29:36.863Z,14.25
2022-10-26T07:30:37.045Z,14.27
2022-10-26T07:31:37.240Z,14.32
2022-10-26T07:32:37.395Z,14.41
2022-10-26T07:33:40.789Z,14.51
2022-10-26T07:34:37.724Z,14.55
2022-10-26T07:35:37.890Z,14.78
2022-10-26T07:36:38.049Z,15.21
2022-10-26T07:37:38.208Z,15.86
2022-10-26T07:38:38.378Z,16.53
2022-10-26T07:39:38.574Z,17.20
2022-10-26T07:40:38.737Z,17.65
2022-10-26T07:41:38.919Z,17.95
2022-10-26T07:42:41.010Z,17.94
2022-10-26T07:43:39.292Z,17.72
2022-10-26T07:44:39.489Z,17.50
2022-10-26T07:45:39.610Z,17.57
2022-10-26T07:46:39.814Z,17.65
2022-10-26T07:47:39.959Z,17.61
2022-10-26T07:48:40.181Z,17.45
2022-10-26T07:49:40.302Z,17.34
2022-10-26T07:50:40.461Z,17.28
2022-10-26T07:51:40.632Z,17.30
2022-10-26T07:52:40.779Z,17.28
2022-10-26T07:53:40.962Z,17.30
2022-10-26T07:54:41.128Z,17.27
2022-10-26T07:55:41.291Z,17.28
2022-10-26T07:56:41.455Z,17.34
2022-10-26T07:57:41.626Z,17.35
2022-10-26T07:58:41.849Z,17.35
2022-10-26T07:59:41.970Z,17.38
2022-10-26T08:00:42.174Z,17.40
2022-10-26T08:01:42.356Z,17.40
2022-10-26T08:02:42.473Z,17.34
2022-10-26T08:03:42.665Z,17.38
2022-10-26T08:04:42.808Z,17.39
2022-10-26T08:05:42.985Z,17.42
2022-10-26T08:06:43.155Z,17.43
2022-10-26T08:07:43.365Z,17.46
2022-10-26T08:08:46.460Z,17.50
2022-10-26T08:09:43.696Z,17.58
2022-10-26T08:10:43.851Z,17.64
2022-10-26T08:11:44.036Z,17.68
2022-10-26T08:12:44.243Z,17.71
2022-10-26T08:13:44.455Z,17.78
2022-10-26T08:14:44.628Z,17.89
2022-10-26T08:15:44.754Z,17.97
2022-10-26T08:16:44.899Z,18.04
2022-10-26T08:17:45.070Z,18.13
2022-10-26T08:18:45.244Z,18.19
2022-10-26T08:19:45.437Z,18.23
2022-10-26T08:20:45.579Z,18.26
2022-10-26T08:21:45.755Z,18.30
2022-10-26T08:22:46.041Z,18.37
2022-10-26T08:23:46.089Z,18.38
2022-10-26T08:24:46.264Z,18.44
2022-10-26T08:25:46.429Z,18.46
2022-10-26T08:26:46.599Z,18.50
2022-10-26T08:27:46.750Z,18.53
2022-10-26T08:28:46.933Z,18.53
2022-10-26T08:29:47.095Z,18.60
2022-10-26T08:30:47.284Z,18.66
2022-10-26T08:31:47.463Z,18.73
2022-10-26T08:32:48.041Z,18.79
2022-10-26T08:33:47.792Z,18.85
2022-10-26T08:34:47.957Z,18.90
2022-10-26T08:35:48.151Z,19.00
2022-10-26T08:36:48.308Z,19.05
2022-10-26T08:37:48.483Z,19.05
2022-10-26T08:38:48.738Z,19.12
2022-10-26T08:39:51.920Z,19.13
2022-10-26T08:40:50.015Z,19.22
2022-10-26T08:41:49.184Z,19.24
2022-10-26T08:42:49.621Z,19.34
2022-10-26T08:43:49.517Z,19.40
2022-10-26T08:44:49.684Z,19.43
2022-10-26T08:45:49.861Z,19.45
2022-10-26T08:46:50.032Z,19.52
2022-10-26T08:47:50.609Z,19.58
2022-10-26T08:48:50.412Z,19.66
2022-10-26T08:49:50.588Z,19.71
2022-10-26T08:50:50.752Z,19.77
2022-10-26T08:51:50.916Z,19.86
2022-10-26T08:52:51.068Z,19.93
2022-10-26T08:53:51.229Z,20.04
2022-10-26T08:54:51.407Z,20.20
2022-10-26T08:55:51.565Z,20.26
2022-10-26T08:56:51.730Z,20.36
2022-10-26T08:57:52.157Z,20.48
2022-10-26T08:58:52.055Z,20.54
2022-10-26T08:59:52.232Z,20.64
2022-10-26T09:00:52.428Z,20.74
2022-10-26T09:01:52.648Z,20.82
2022-10-26T09:02:52.761Z,20.82
2022-10-26T09:03:53.046Z,20.85
2022-10-26T09:04:53.159Z,20.82
2022-10-26T09:05:53.304Z,20.84
2022-10-26T09:06:53.483Z,20.86
2022-10-26T09:07:53.644Z,20.96
2022-10-26T09:08:53.806Z,21.04
2022-10-26T09:09:53.968Z,21.11
2022-10-26T09:10:54.156Z,21.18
2022-10-26T09:11:54.335Z,21.21
2022-10-26T09:12:54.499Z,21.25
2022-10-26T09:13:57.580Z,21.31
2022-10-26T09:14:55.826Z,21.35
2022-10-26T09:15:54.998Z,21.45
2022-10-26T09:16:55.177Z,21.56
2022-10-26T09:17:55.336Z,21.56
2022-10-26T09:18:57.780Z,21.62
2022-10-26T09:19:55.679Z,21.74
2022-10-26T09:20:55.843Z,21.82
2022-10-26T09:21:55.998Z,21.92
2022-10-26T09:22:56.184Z,22.05
2022-10-26T09:23:56.344Z,22.12
2022-10-26T09:24:56.520Z,22.18
2022-10-26T09:25:56.734Z,22.27
2022-10-26T09:26:56.940Z,22.33
2022-10-26T09:27:57.022Z,22.36
2022-10-26T09:28:57.191Z,22.42
2022-10-26T09:29:57.352Z,22.51
2022-10-26T09:30:57.543Z,22.55
2022-10-26T09:31:57.703Z,22.66
2022-10-26T09:32:57.875Z,22.68
2022-10-26T09:33:58.047Z,22.75
2022-10-26T09:34:58.211Z,22.82
2022-10-26T09:35:58.378Z,22.89
2022-10-26T09:36:58.539Z,22.90
2022-10-26T09:37:58.717Z,22.99
2022-10-26T09:38:58.886Z,23.01
2022-10-26T09:39:59.052Z,23.05
2022-10-26T09:40:59.215Z,23.12
2022-10-26T09:41:59.381Z,23.20
2022-10-26T09:42:59.556Z,23.27
2022-10-26T09:43:59.707Z,23.29
2022-10-26T09:44:59.876Z,23.34
2022-10-26T09:46:00.039Z,23.44
2022-10-26T09:47:00.241Z,23.44
2022-10-26T09:48:03.903Z,23.51
2022-10-26T09:50:00.770Z,23.61
2022-10-26T09:51:03.747Z,23.67
2022-10-26T09:52:01.205Z,23.75
2022-10-26T09:53:01.309Z,23.79
2022-10-26T09:54:01.481Z,23.90
2022-10-26T09:55:01.641Z,23.97
2022-10-26T09:56:01.801Z,24.06
2022-10-26T09:57:01.963Z,24.16
2022-10-26T09:58:02.139Z,24.24
2022-10-26T09:59:02.320Z,24.34
2022-10-26T10:00:02.465Z,24.44
2022-10-26T10:01:02.651Z,24.53
2022-10-26T10:02:02.832Z,24.60
2022-10-26T10:03:03.055Z,24.66
2022-10-26T10:04:03.145Z,24.78
2022-10-26T10:05:03.335Z,24.78
2022-10-26T10:06:03.493Z,24.87
2022-10-26T10:07:03.678Z,24.96
2022-10-26T10:08:03.824Z,25.03
2022-10-26T10:09:03.995Z,25.09
2022-10-26T10:10:04.147Z,25.18
2022-10-26T10:11:04.346Z,25.24
2022-10-26T10:12:04.536Z,25.30
2022-10-26T10:13:04.706Z,25.34
2022-10-26T10:14:04.866Z,25.43
2022-10-26T10:15:05.038Z,25.49
2022-10-26T10:16:05.205Z,25.58
2022-10-26T10:17:05.480Z,25.66
2022-10-26T10:18:05.672Z,25.69
2022-10-26T10:19:05.741Z,25.77
2022-10-26T10:20:05.915Z,25.86
2022-10-26T10:21:06.074Z,25.90
2022-10-26T10:22:06.290Z,26.02
2022-10-26T10:23:06.409Z,26.11
2022-10-26T10:24:06.563Z,26.17
2022-10-26T10:25:06.730Z,26.25
2022-10-26T10:26:06.898Z,26.36
2022-10-26T10:27:07.071Z,26.38
2022-10-26T10:28:07.223Z,26.42
2022-10-26T10:29:07.433Z,26.51
2022-10-26T10:30:07.592Z,26.54
2022-10-26T10:31:07.800Z,26.57
2022-10-26T10:32:07.920Z,26.48
2022-10-26T10:33:08.084Z,26.40
2022-10-26T10:34:08.246Z,26.28
2022-10-26T10:35:08.403Z,26.25
2022-10-26T10:36:08.566Z,26.13
2022-10-26T10:37:08.733Z,26.05
2022-10-26T10:38:08.891Z,25.98
2022-10-26T10:39:09.050Z,25.90
2022-10-26T10:40:09.217Z,25.87
2022-10-26T10:41:09.510Z,25.80
2022-10-26T10:42:09.559Z,25.71
2022-10-26T10:43:09.720Z,25.71
2022-10-26T10:44:09.879Z,25.65
2022-10-26T10:45:10.088Z,25.59
2022-10-26T10:46:10.301Z,25.55
2022-10-26T10:47:10.435Z,25.50
2022-10-26T10:48:10.593Z,25.49
2022-10-26T10:49:10.748Z,25.48
2022-10-26T10:50:10.962Z,25.48
2022-10-26T10:51:11.074Z,25.46
2022-10-26T10:52:11.232Z,25.46
2022-10-26T10:53:11.389Z,25.45
2022-10-26T10:54:11.581Z,25.46
2022-10-26T10:55:11.753Z,25.43
2022-10-26T10:56:11.938Z,25.42
2022-10-26T10:57:12.093Z,25.46
2022-10-26T10:58:12.264Z,25.43
2022-10-26T10:59:12.461Z,25.43
2022-10-26T11:00:12.606Z,25.40
2022-10-26T11:01:12.961Z,25.42
2022-10-26T11:02:13.078Z,25.42
2022-10-26T11:03:13.170Z,25.38
2022-10-26T11:05:13.509Z,25.40
2022-10-26T11:06:13.789Z,25.45
2022-10-26T11:07:13.887Z,25.45
2022-10-26T11:08:14.053Z,25.45
2022-10-26T11:09:14.203Z,25.45
2022-10-26T11:10:14.369Z,25.49
2022-10-26T11:11:14.533Z,25.53
2022-10-26T11:12:14.690Z,25.53
2022-10-26T11:13:14.862Z,25.58
2022-10-26T11:14:15.021Z,25.55
2022-10-26T11:15:15.178Z,25.61
2022-10-26T11:16:15.479Z,25.63
2022-10-26T11:17:15.535Z,25.68
2022-10-26T11:18:15.692Z,25.69
2022-10-26T11:19:15.872Z,25.76
2022-10-26T11:20:16.055Z,25.72
2022-10-26T11:21:16.238Z,25.77
2022-10-26T11:22:16.393Z,25.80
2022-10-26T11:23:16.688Z,25.81
2022-10-26T11:24:16.724Z,25.86
2022-10-26T11:25:16.885Z,25.84
2022-10-26T11:26:17.086Z,25.90
2022-10-26T11:27:17.209Z,25.90
2022-10-26T11:28:17.384Z,25.93
2022-10-26T11:30:17.741Z,26.02
2022-10-26T11:31:17.917Z,26.05
2022-10-26T11:32:18.090Z,26.09
2022-10-26T11:33:18.247Z,26.17
2022-10-26T11:34:18.413Z,26.24
2022-10-26T11:35:18.591Z,26.28
2022-10-26T11:36:21.151Z,26.38
2022-10-26T11:37:18.931Z,26.40
2022-10-26T11:38:27.946Z,26.46
2022-10-26T11:39:20.263Z,26.54
2022-10-26T11:40:19.460Z,26.60
2022-10-26T11:41:19.600Z,26.70
2022-10-26T11:42:19.779Z,26.79
2022-10-26T11:43:19.940Z,26.91
2022-10-26T11:44:20.121Z,26.95
2022-10-26T11:45:20.302Z,26.97
2022-10-26T11:46:20.494Z,26.97
2022-10-26T11:47:20.672Z,27.00
2022-10-26T11:48:20.844Z,27.02
2022-10-26T11:49:21.002Z,27.00
2022-10-26T11:50:21.181Z,27.08
2022-10-26T11:51:21.373Z,27.10
2022-10-26T11:52:21.545Z,27.12
2022-10-26T11:53:21.709Z,27.14
2022-10-26T11:55:22.071Z,27.18
2022-10-26T11:56:22.252Z,27.18
2022-10-26T11:57:22.415Z,27.20
2022-10-26T11:58:22.601Z,27.20
2022-10-26T11:59:22.757Z,27.17
2022-10-26T12:00:22.961Z,27.11
2022-10-26T12:01:23.157Z,27.12
2022-10-26T12:02:23.298Z,27.12
2022-10-26T12:03:23.479Z,27.17
2022-10-26T12:04:23.669Z,27.17
2022-10-26T12:05:23.801Z,27.17
2022-10-26T12:06:23.994Z,27.17
2022-10-26T12:07:24.147Z,27.14
2022-10-26T12:08:24.358Z,27.15
2022-10-26T12:09:24.521Z,27.14
2022-10-26T12:10:24.721Z,27.18
2022-10-26T12:11:24.890Z,27.21
2022-10-26T12:12:25.072Z,27.26
2022-10-26T12:13:25.253Z,27.26
2022-10-26T12:14:25.383Z,27.30
2022-10-26T12:15:35.096Z,27.32
2022-10-26T12:16:26.740Z,27.35
2022-10-26T12:17:25.925Z,27.37
2022-10-26T12:18:43.268Z,27.41
2022-10-26T12:20:26.447Z,27.48
2022-10-26T12:21:26.638Z,27.51
2022-10-26T12:22:26.843Z,27.49
2022-10-26T12:23:40.358Z,27.49
2022-10-26T12:24:28.168Z,27.49
2022-10-26T12:25:27.339Z,27.52
2022-10-26T12:26:27.532Z,27.51
2022-10-26T12:27:27.699Z,27.54
2022-10-26T12:28:27.865Z,27.58
2022-10-26T12:29:28.023Z,27.60
2022-10-26T12:30:28.192Z,27.66
2022-10-26T12:32:28.512Z,27.71
2022-10-26T12:33:28.679Z,27.76
2022-10-26T12:34:28.842Z,27.78
2022-10-26T12:35:29.001Z,27.84
2022-10-26T12:36:29.187Z,27.84
2022-10-26T12:37:29.359Z,27.88
2022-10-26T12:38:31.705Z,27.91
2022-10-26T12:39:29.706Z,27.94
2022-10-26T12:40:29.884Z,27.97
2022-10-26T12:41:30.063Z,28.00
2022-10-26T12:42:30.235Z,27.99
2022-10-26T12:43:30.431Z,28.06
2022-10-26T12:44:30.557Z,28.08
2022-10-26T12:45:30.716Z,28.11
2022-10-26T12:46:30.906Z,28.15
2022-10-26T12:47:31.059Z,28.19
2022-10-26T12:48:39.728Z,28.23
2022-10-26T12:49:32.442Z,28.26
2022-10-26T12:50:31.617Z,28.29
2022-10-26T12:51:34.126Z,28.29
2022-10-26T12:52:31.940Z,28.37
2022-10-26T12:53:32.120Z,28.42
2022-10-26T12:54:32.288Z,28.42
2022-10-26T12:55:32.470Z,28.46
2022-10-26T12:56:32.651Z,28.48
2022-10-26T12:57:32.810Z,28.53
2022-10-26T12:58:32.960Z,28.56
2022-10-26T12:59:33.129Z,28.54
2022-10-26T13:00:33.378Z,28.57
2022-10-26T13:01:33.598Z,28.57
2022-10-26T13:02:33.629Z,28.60
2022-10-26T13:03:33.782Z,28.66
2022-10-26T13:04:33.955Z,28.64
2022-10-26T13:05:34.114Z,28.64
2022-10-26T13:06:34.304Z,28.66